sensor_id;sensor_type;location;lat;lon;timestamp;P1;durP1;ratioP1;P2;durP2;ratioP2
40322;SDS011;26030;51.164;17.100;2024-03-23T00:56:53;4.50;;;3.90;;
40322;SDS011;26030;51.164;17.100;2024-03-23T01:01:56;5.70;;;3.80;;
40322;SDS011;26030;51.164;17.100;2024-03-23T01:07:00;5.50;;;3.80;;
40322;SDS011;26030;51.164;17.100;2024-03-23T01:12:05;5.80;;;3.30;;
40322;SDS011;26030;51.164;17.100;2024-03-23T01:17:09;4.10;;;3.70;;
40322;SDS011;26030;51.164;17.100;2024-03-23T01:22:13;4.60;;;4.20;;
40322;SDS011;26030;51.164;17.100;2024-03-23T01:27:16;4.00;;;3.50;;
40322;SDS011;26030;51.164;17.100;2024-03-23T01:32:20;3.70;;;3.40;;
40322;SDS011;26030;51.164;17.100;2024-03-23T01:37:25;4.50;;;4.00;;
40322;SDS011;26030;51.164;17.100;2024-03-23T01:42:28;4.50;;;4.10;;
40322;SDS011;26030;51.164;17.100;2024-03-23T01:47:34;4.00;;;3.60;;
40322;SDS011;26030;51.164;17.100;2024-03-23T01:52:39;3.90;;;3.60;;
40322;SDS011;26030;51.164;17.100;2024-03-23T01:57:51;5.00;;;3.20;;
40322;SDS011;26030;51.164;17.100;2024-03-23T02:02:55;4.20;;;3.70;;
40322;SDS011;26030;51.164;17.100;2024-03-23T02:08:02;4.50;;;3.60;;
40322;SDS011;26030;51.164;17.100;2024-03-23T02:13:06;4.40;;;4.00;;
40322;SDS011;26030;51.164;17.100;2024-03-23T02:18:13;4.20;;;3.80;;
40322;SDS011;26030;51.164;17.100;2024-03-23T02:23:17;4.20;;;3.50;;
40322;SDS011;26030;51.164;17.100;2024-03-23T02:28:30;3.70;;;3.30;;
40322;SDS011;26030;51.164;17.100;2024-03-23T02:33:33;4.20;;;3.40;;
40322;SDS011;26030;51.164;17.100;2024-03-23T02:38:44;4.30;;;3.20;;
40322;SDS011;26030;51.164;17.100;2024-03-23T02:43:57;3.80;;;3.50;;
40322;SDS011;26030;51.164;17.100;2024-03-23T02:49:10;4.10;;;3.20;;
40322;SDS011;26030;51.164;17.100;2024-03-23T02:54:14;4.90;;;3.60;;
40322;SDS011;26030;51.164;17.100;2024-03-23T02:59:18;4.40;;;3.50;;
40322;SDS011;26030;51.164;17.100;2024-03-23T03:04:21;4.10;;;3.70;;
40322;SDS011;26030;51.164;17.100;2024-03-23T03:09:26;4.20;;;3.10;;
40322;SDS011;26030;51.164;17.100;2024-03-23T03:14:29;3.60;;;3.40;;
40322;SDS011;26030;51.164;17.100;2024-03-23T03:19:33;3.40;;;3.10;;
40322;SDS011;26030;51.164;17.100;2024-03-23T03:24:37;3.00;;;2.80;;
40322;SDS011;26030;51.164;17.100;2024-03-23T03:29:44;3.60;;;3.00;;
40322;SDS011;26030;51.164;17.100;2024-03-23T03:34:48;3.20;;;2.90;;
40322;SDS011;26030;51.164;17.100;2024-03-23T03:39:53;3.10;;;2.90;;
40322;SDS011;26030;51.164;17.100;2024-03-23T03:45:13;3.80;;;3.40;;
40322;SDS011;26030;51.164;17.100;2024-03-23T03:50:17;3.80;;;3.10;;
40322;SDS011;26030;51.164;17.100;2024-03-23T03:55:21;3.00;;;2.70;;
40322;SDS011;26030;51.164;17.100;2024-03-23T04:00:25;3.90;;;3.60;;
40322;SDS011;26030;51.164;17.100;2024-03-23T04:05:32;5.10;;;3.20;;
40322;SDS011;26030;51.164;17.100;2024-03-23T04:10:36;3.70;;;3.00;;
40322;SDS011;26030;51.164;17.100;2024-03-23T04:15:40;3.90;;;3.30;;
40322;SDS011;26030;51.164;17.100;2024-03-23T04:20:44;3.20;;;3.00;;
40322;SDS011;26030;51.164;17.100;2024-03-23T04:25:47;4.10;;;2.80;;
40322;SDS011;26030;51.164;17.100;2024-03-23T04:30:51;3.20;;;3.00;;
40322;SDS011;26030;51.164;17.100;2024-03-23T04:36:04;3.10;;;2.80;;
40322;SDS011;26030;51.164;17.100;2024-03-23T04:41:07;3.20;;;2.90;;
40322;SDS011;26030;51.164;17.100;2024-03-23T04:46:11;3.50;;;2.60;;
40322;SDS011;26030;51.164;17.100;2024-03-23T04:51:24;3.60;;;3.30;;
40322;SDS011;26030;51.164;17.100;2024-03-23T04:56:28;2.90;;;2.70;;
40322;SDS011;26030;51.164;17.100;2024-03-23T05:01:31;3.40;;;2.50;;
40322;SDS011;26030;51.164;17.100;2024-03-23T05:06:38;3.10;;;2.90;;
40322;SDS011;26030;51.164;17.100;2024-03-23T05:11:42;2.90;;;2.70;;
40322;SDS011;26030;51.164;17.100;2024-03-23T05:16:45;5.00;;;3.00;;
40322;SDS011;26030;51.164;17.100;2024-03-23T05:21:49;3.00;;;2.80;;
40322;SDS011;26030;51.164;17.100;2024-03-23T05:26:53;3.40;;;3.10;;
40322;SDS011;26030;51.164;17.100;2024-03-23T05:31:57;2.70;;;2.50;;
40322;SDS011;26030;51.164;17.100;2024-03-23T05:37:01;2.70;;;2.50;;
40322;SDS011;26030;51.164;17.100;2024-03-23T05:42:10;3.10;;;2.80;;
40322;SDS011;26030;51.164;17.100;2024-03-23T05:47:18;2.80;;;2.60;;
40322;SDS011;26030;51.164;17.100;2024-03-23T05:52:24;3.20;;;2.90;;
40322;SDS011;26030;51.164;17.100;2024-03-23T05:57:29;4.20;;;2.50;;
40322;SDS011;26030;51.164;17.100;2024-03-23T06:02:33;2.90;;;2.70;;
40322;SDS011;26030;51.164;17.100;2024-03-23T06:07:38;3.10;;;2.80;;
40322;SDS011;26030;51.164;17.100;2024-03-23T06:12:41;2.60;;;2.40;;
40322;SDS011;26030;51.164;17.100;2024-03-23T06:17:45;2.80;;;2.60;;
40322;SDS011;26030;51.164;17.100;2024-03-23T06:22:49;2.60;;;2.40;;
40322;SDS011;26030;51.164;17.100;2024-03-23T06:27:56;3.20;;;2.90;;
40322;SDS011;26030;51.164;17.100;2024-03-23T06:33:01;2.80;;;2.60;;
40322;SDS011;26030;51.164;17.100;2024-03-23T06:38:07;3.50;;;2.80;;
40322;SDS011;26030;51.164;17.100;2024-03-23T06:43:11;2.80;;;2.60;;
40322;SDS011;26030;51.164;17.100;2024-03-23T06:48:15;3.00;;;2.50;;
40322;SDS011;26030;51.164;17.100;2024-03-23T06:53:29;6.20;;;2.90;;
40322;SDS011;26030;51.164;17.100;2024-03-23T06:58:32;2.80;;;2.60;;
40322;SDS011;26030;51.164;17.100;2024-03-23T07:03:36;2.70;;;2.50;;
40322;SDS011;26030;51.164;17.100;2024-03-23T07:08:40;3.00;;;2.60;;
40322;SDS011;26030;51.164;17.100;2024-03-23T07:13:44;6.60;;;2.70;;
40322;SDS011;26030;51.164;17.100;2024-03-23T07:18:50;2.90;;;2.30;;
40322;SDS011;26030;51.164;17.100;2024-03-23T07:24:02;3.20;;;2.90;;
40322;SDS011;26030;51.164;17.100;2024-03-23T07:29:06;3.00;;;2.70;;
40322;SDS011;26030;51.164;17.100;2024-03-23T07:34:10;4.60;;;3.40;;
40322;SDS011;26030;51.164;17.100;2024-03-23T07:39:16;3.60;;;2.70;;
40322;SDS011;26030;51.164;17.100;2024-03-23T07:44:23;2.60;;;2.40;;
40322;SDS011;26030;51.164;17.100;2024-03-23T07:49:27;2.60;;;2.40;;
40322;SDS011;26030;51.164;17.100;2024-03-23T07:54:31;2.70;;;2.50;;
40322;SDS011;26030;51.164;17.100;2024-03-23T07:59:44;3.00;;;2.70;;
40322;SDS011;26030;51.164;17.100;2024-03-23T08:04:48;3.20;;;2.90;;
40322;SDS011;26030;51.164;17.100;2024-03-23T08:09:52;2.40;;;2.20;;
40322;SDS011;26030;51.164;17.100;2024-03-23T08:14:55;3.10;;;2.90;;
40322;SDS011;26030;51.164;17.100;2024-03-23T08:19:59;2.80;;;2.60;;
40322;SDS011;26030;51.164;17.100;2024-03-23T08:25:03;4.40;;;2.90;;
40322;SDS011;26030;51.164;17.100;2024-03-23T08:30:07;2.50;;;2.30;;
40322;SDS011;26030;51.164;17.100;2024-03-23T08:35:11;2.60;;;2.40;;
40322;SDS011;26030;51.164;17.100;2024-03-23T08:40:14;4.00;;;2.80;;
40322;SDS011;26030;51.164;17.100;2024-03-23T08:45:18;5.90;;;2.80;;
40322;SDS011;26030;51.164;17.100;2024-03-23T08:50:22;2.80;;;2.60;;
40322;SDS011;26030;51.164;17.100;2024-03-23T08:55:25;4.20;;;2.40;;
40322;SDS011;26030;51.164;17.100;2024-03-23T09:00:30;3.30;;;2.30;;
40322;SDS011;26030;51.164;17.100;2024-03-23T09:05:39;4.60;;;2.90;;
40322;SDS011;26030;51.164;17.100;2024-03-23T09:10:43;3.10;;;2.80;;
40322;SDS011;26030;51.164;17.100;2024-03-23T09:15:48;5.60;;;2.50;;
40322;SDS011;26030;51.164;17.100;2024-03-23T09:20:52;3.90;;;2.40;;
40322;SDS011;26030;51.164;17.100;2024-03-23T09:26:03;3.20;;;2.80;;
40322;SDS011;26030;51.164;17.100;2024-03-23T09:31:08;5.20;;;2.50;;
40322;SDS011;26030;51.164;17.100;2024-03-23T09:36:12;7.10;;;2.70;;
40322;SDS011;26030;51.164;17.100;2024-03-23T09:41:16;3.70;;;2.40;;
40322;SDS011;26030;51.164;17.100;2024-03-23T09:46:20;3.30;;;2.60;;
40322;SDS011;26030;51.164;17.100;2024-03-23T09:51:24;3.40;;;2.60;;
40322;SDS011;26030;51.164;17.100;2024-03-23T09:56:28;8.50;;;3.10;;
40322;SDS011;26030;51.164;17.100;2024-03-23T10:01:32;10.80;;;3.70;;
40322;SDS011;26030;51.164;17.100;2024-03-23T10:06:36;6.40;;;2.90;;
40322;SDS011;26030;51.164;17.100;2024-03-23T10:11:40;4.40;;;2.90;;
40322;SDS011;26030;51.164;17.100;2024-03-23T10:16:44;3.50;;;3.10;;
40322;SDS011;26030;51.164;17.100;2024-03-23T10:21:53;4.10;;;2.90;;
40322;SDS011;26030;51.164;17.100;2024-03-23T10:27:06;2.80;;;2.40;;
40322;SDS011;26030;51.164;17.100;2024-03-23T10:32:11;2.90;;;2.50;;
40322;SDS011;26030;51.164;17.100;2024-03-23T10:37:15;4.00;;;3.10;;
40322;SDS011;26030;51.164;17.100;2024-03-23T10:42:20;6.00;;;3.10;;
40322;SDS011;26030;51.164;17.100;2024-03-23T10:47:26;4.00;;;3.00;;
40322;SDS011;26030;51.164;17.100;2024-03-23T10:52:30;6.20;;;3.40;;
40322;SDS011;26030;51.164;17.100;2024-03-23T10:57:41;8.40;;;2.80;;
40322;SDS011;26030;51.164;17.100;2024-03-23T11:02:48;10.00;;;2.70;;
40322;SDS011;26030;51.164;17.100;2024-03-23T11:07:53;5.50;;;2.60;;
40322;SDS011;26030;51.164;17.100;2024-03-23T11:12:57;12.80;;;2.50;;
40322;SDS011;26030;51.164;17.100;2024-03-23T11:18:07;3.60;;;2.90;;
40322;SDS011;26030;51.164;17.100;2024-03-23T11:23:28;5.40;;;3.20;;
40322;SDS011;26030;51.164;17.100;2024-03-23T11:28:32;4.80;;;3.10;;
40322;SDS011;26030;51.164;17.100;2024-03-23T11:33:38;11.90;;;3.50;;
40322;SDS011;26030;51.164;17.100;2024-03-23T11:38:42;8.70;;;3.50;;
40322;SDS011;26030;51.164;17.100;2024-03-23T11:43:46;8.90;;;3.10;;
40322;SDS011;26030;51.164;17.100;2024-03-23T11:48:53;19.90;;;8.10;;
40322;SDS011;26030;51.164;17.100;2024-03-23T11:54:07;9.50;;;7.20;;
40322;SDS011;26030;51.164;17.100;2024-03-23T11:59:11;21.80;;;10.80;;
40322;SDS011;26030;51.164;17.100;2024-03-23T12:04:27;21.80;;;10.50;;
40322;SDS011;26030;51.164;17.100;2024-03-23T12:09:31;12.90;;;8.40;;
40322;SDS011;26030;51.164;17.100;2024-03-23T12:14:35;11.00;;;6.50;;
40322;SDS011;26030;51.164;17.100;2024-03-23T12:19:39;9.00;;;6.10;;
40322;SDS011;26030;51.164;17.100;2024-03-23T12:24:44;10.00;;;6.10;;
40322;SDS011;26030;51.164;17.100;2024-03-23T12:29:49;6.80;;;5.30;;
40322;SDS011;26030;51.164;17.100;2024-03-23T12:34:55;4.40;;;4.00;;
40322;SDS011;26030;51.164;17.100;2024-03-23T12:39:59;5.00;;;4.10;;
40322;SDS011;26030;51.164;17.100;2024-03-23T12:45:04;5.20;;;4.20;;
40322;SDS011;26030;51.164;17.100;2024-03-23T12:50:09;5.00;;;4.10;;
40322;SDS011;26030;51.164;17.100;2024-03-23T12:55:13;4.90;;;4.10;;
40322;SDS011;26030;51.164;17.100;2024-03-23T13:00:17;4.30;;;3.30;;
40322;SDS011;26030;51.164;17.100;2024-03-23T13:05:24;6.50;;;3.30;;
40322;SDS011;26030;51.164;17.100;2024-03-23T13:10:28;3.90;;;3.30;;
40322;SDS011;26030;51.164;17.100;2024-03-23T13:15:32;5.10;;;3.80;;
40322;SDS011;26030;51.164;17.100;2024-03-23T13:20:35;4.50;;;3.20;;
40322;SDS011;26030;51.164;17.100;2024-03-23T13:25:40;3.30;;;2.50;;
40322;SDS011;26030;51.164;17.100;2024-03-23T13:30:55;2.60;;;2.40;;
40322;SDS011;26030;51.164;17.100;2024-03-23T13:36:00;3.00;;;2.70;;
40322;SDS011;26030;51.164;17.100;2024-03-23T13:41:09;2.60;;;2.40;;
40322;SDS011;26030;51.164;17.100;2024-03-23T13:46:18;3.20;;;2.40;;
40322;SDS011;26030;51.164;17.100;2024-03-23T13:51:26;2.50;;;2.30;;
40322;SDS011;26030;51.164;17.100;2024-03-23T13:56:32;5.60;;;2.30;;
40322;SDS011;26030;51.164;17.100;2024-03-23T14:01:39;2.40;;;1.80;;
40322;SDS011;26030;51.164;17.100;2024-03-23T14:06:43;3.80;;;2.10;;
40322;SDS011;26030;51.164;17.100;2024-03-23T14:11:53;4.90;;;2.30;;
40322;SDS011;26030;51.164;17.100;2024-03-23T14:17:04;4.90;;;2.40;;
40322;SDS011;26030;51.164;17.100;2024-03-23T14:22:08;5.50;;;2.20;;
40322;SDS011;26030;51.164;17.100;2024-03-23T14:27:12;2.80;;;2.20;;
40322;SDS011;26030;51.164;17.100;2024-03-23T14:32:25;2.40;;;2.20;;
40322;SDS011;26030;51.164;17.100;2024-03-23T14:37:29;4.60;;;2.00;;
40322;SDS011;26030;51.164;17.100;2024-03-23T14:42:39;1.90;;;1.60;;
40322;SDS011;26030;51.164;17.100;2024-03-23T14:47:43;3.90;;;2.00;;
40322;SDS011;26030;51.164;17.100;2024-03-23T14:52:50;2.20;;;2.00;;
40322;SDS011;26030;51.164;17.100;2024-03-23T14:57:54;3.00;;;2.20;;
40322;SDS011;26030;51.164;17.100;2024-03-23T15:02:58;2.00;;;1.80;;
40322;SDS011;26030;51.164;17.100;2024-03-23T15:08:03;3.80;;;1.80;;
40322;SDS011;26030;51.164;17.100;2024-03-23T15:13:07;2.50;;;1.60;;
40322;SDS011;26030;51.164;17.100;2024-03-23T15:18:14;4.90;;;1.80;;
40322;SDS011;26030;51.164;17.100;2024-03-23T15:23:19;3.30;;;1.70;;
40322;SDS011;26030;51.164;17.100;2024-03-23T15:28:23;3.80;;;1.70;;
40322;SDS011;26030;51.164;17.100;2024-03-23T15:33:27;5.90;;;1.50;;
40322;SDS011;26030;51.164;17.100;2024-03-23T15:38:34;1.80;;;1.60;;
40322;SDS011;26030;51.164;17.100;2024-03-23T15:43:38;3.00;;;1.40;;
40322;SDS011;26030;51.164;17.100;2024-03-23T15:48:42;3.20;;;1.80;;
40322;SDS011;26030;51.164;17.100;2024-03-23T15:53:50;5.20;;;1.30;;
40322;SDS011;26030;51.164;17.100;2024-03-23T15:58:58;3.60;;;1.50;;
40322;SDS011;26030;51.164;17.100;2024-03-23T16:04:08;1.90;;;1.30;;
40322;SDS011;26030;51.164;17.100;2024-03-23T16:09:15;1.50;;;1.40;;
40322;SDS011;26030;51.164;17.100;2024-03-23T16:14:26;2.40;;;1.50;;
40322;SDS011;26030;51.164;17.100;2024-03-23T16:19:30;9.80;;;1.40;;
40322;SDS011;26030;51.164;17.100;2024-03-23T16:24:33;1.90;;;1.20;;
40322;SDS011;26030;51.164;17.100;2024-03-23T16:29:37;2.20;;;1.00;;
40322;SDS011;26030;51.164;17.100;2024-03-23T16:34:41;4.20;;;1.20;;
40322;SDS011;26030;51.164;17.100;2024-03-23T16:39:45;4.40;;;1.40;;
40322;SDS011;26030;51.164;17.100;2024-03-23T16:44:48;2.00;;;1.30;;
40322;SDS011;26030;51.164;17.100;2024-03-23T16:49:55;7.50;;;1.10;;
40322;SDS011;26030;51.164;17.100;2024-03-23T16:55:00;5.70;;;1.20;;
40322;SDS011;26030;51.164;17.100;2024-03-23T17:00:08;12.10;;;1.40;;
40322;SDS011;26030;51.164;17.100;2024-03-23T17:05:23;6.10;;;1.50;;
40322;SDS011;26030;51.164;17.100;2024-03-23T17:10:29;4.80;;;1.60;;
40322;SDS011;26030;51.164;17.100;2024-03-23T17:15:33;3.20;;;1.20;;
40322;SDS011;26030;51.164;17.100;2024-03-23T17:20:37;3.70;;;2.20;;
40322;SDS011;26030;51.164;17.100;2024-03-23T17:25:41;4.90;;;2.70;;
40322;SDS011;26030;51.164;17.100;2024-03-23T17:30:45;3.60;;;2.40;;
40322;SDS011;26030;51.164;17.100;2024-03-23T17:35:52;10.00;;;2.40;;
40322;SDS011;26030;51.164;17.100;2024-03-23T17:40:56;5.10;;;2.40;;
40322;SDS011;26030;51.164;17.100;2024-03-23T17:46:00;4.90;;;1.90;;
40322;SDS011;26030;51.164;17.100;2024-03-23T17:51:04;4.20;;;2.10;;
40322;SDS011;26030;51.164;17.100;2024-03-23T17:56:08;3.20;;;1.80;;
40322;SDS011;26030;51.164;17.100;2024-03-23T18:01:13;4.40;;;1.70;;
40322;SDS011;26030;51.164;17.100;2024-03-23T18:06:16;4.70;;;2.10;;
40322;SDS011;26030;51.164;17.100;2024-03-23T18:11:22;4.60;;;1.60;;
40322;SDS011;26030;51.164;17.100;2024-03-23T18:16:26;3.60;;;1.60;;
40322;SDS011;26030;51.164;17.100;2024-03-23T18:21:30;10.50;;;1.90;;
40322;SDS011;26030;51.164;17.100;2024-03-23T18:26:34;1.50;;;1.40;;
40322;SDS011;26030;51.164;17.100;2024-03-23T18:31:39;1.80;;;1.40;;
40322;SDS011;26030;51.164;17.100;2024-03-23T18:36:46;2.90;;;1.40;;
40322;SDS011;26030;51.164;17.100;2024-03-23T18:41:50;2.10;;;1.10;;
40322;SDS011;26030;51.164;17.100;2024-03-23T18:46:53;1.90;;;1.60;;
40322;SDS011;26030;51.164;17.100;2024-03-23T18:52:06;2.80;;;1.30;;
40322;SDS011;26030;51.164;17.100;2024-03-23T18:57:10;4.40;;;1.40;;
40322;SDS011;26030;51.164;17.100;2024-03-23T19:02:14;4.30;;;1.30;;
40322;SDS011;26030;51.164;17.100;2024-03-23T19:07:18;2.00;;;1.30;;
40322;SDS011;26030;51.164;17.100;2024-03-23T19:12:25;2.80;;;1.30;;
40322;SDS011;26030;51.164;17.100;2024-03-23T19:17:29;1.80;;;1.10;;
40322;SDS011;26030;51.164;17.100;2024-03-23T19:22:43;1.80;;;1.10;;
40322;SDS011;26030;51.164;17.100;2024-03-23T19:27:47;4.90;;;1.30;;
40322;SDS011;26030;51.164;17.100;2024-03-23T19:33:04;1.20;;;1.10;;
40322;SDS011;26030;51.164;17.100;2024-03-23T19:38:09;1.40;;;1.00;;
40322;SDS011;26030;51.164;17.100;2024-03-23T19:43:13;1.40;;;1.30;;
40322;SDS011;26030;51.164;17.100;2024-03-23T19:48:16;5.10;;;1.40;;
40322;SDS011;26030;51.164;17.100;2024-03-23T19:53:20;2.30;;;0.90;;
40322;SDS011;26030;51.164;17.100;2024-03-23T19:58:24;2.90;;;1.50;;
40322;SDS011;26030;51.164;17.100;2024-03-23T20:03:56;1.80;;;0.90;;
40322;SDS011;26030;51.164;17.100;2024-03-23T20:09:04;3.60;;;1.30;;
40322;SDS011;26030;51.164;17.100;2024-03-23T20:14:07;4.40;;;1.30;;
40322;SDS011;26030;51.164;17.100;2024-03-23T20:19:11;2.10;;;1.20;;
40322;SDS011;26030;51.164;17.100;2024-03-23T20:24:15;6.70;;;1.40;;
40322;SDS011;26030;51.164;17.100;2024-03-23T20:29:18;3.90;;;1.50;;
40322;SDS011;26030;51.164;17.100;2024-03-23T20:34:22;3.20;;;1.40;;
40322;SDS011;26030;51.164;17.100;2024-03-23T20:39:26;3.10;;;1.60;;
40322;SDS011;26030;51.164;17.100;2024-03-23T20:44:30;2.30;;;1.90;;
40322;SDS011;26030;51.164;17.100;2024-03-23T20:49:34;2.50;;;1.70;;
40322;SDS011;26030;51.164;17.100;2024-03-23T20:54:39;4.60;;;2.00;;
40322;SDS011;26030;51.164;17.100;2024-03-23T20:59:43;3.30;;;1.60;;
40322;SDS011;26030;51.164;17.100;2024-03-23T21:04:48;5.00;;;2.10;;
40322;SDS011;26030;51.164;17.100;2024-03-23T21:09:52;3.20;;;2.30;;
40322;SDS011;26030;51.164;17.100;2024-03-23T21:14:55;3.60;;;2.10;;
40322;SDS011;26030;51.164;17.100;2024-03-23T21:20:11;6.20;;;1.80;;
40322;SDS011;26030;51.164;17.100;2024-03-23T21:25:15;5.60;;;3.20;;
40322;SDS011;26030;51.164;17.100;2024-03-23T21:30:18;4.60;;;1.90;;
40322;SDS011;26030;51.164;17.100;2024-03-23T21:35:22;8.50;;;2.00;;
40322;SDS011;26030;51.164;17.100;2024-03-23T21:40:30;14.00;;;3.60;;
40322;SDS011;26030;51.164;17.100;2024-03-23T21:45:33;4.20;;;2.20;;
40322;SDS011;26030;51.164;17.100;2024-03-23T21:50:40;6.70;;;2.40;;
40322;SDS011;26030;51.164;17.100;2024-03-23T21:55:53;9.50;;;3.30;;
40322;SDS011;26030;51.164;17.100;2024-03-23T22:00:57;5.30;;;2.40;;
40322;SDS011;26030;51.164;17.100;2024-03-23T22:06:10;3.60;;;2.50;;
40322;SDS011;26030;51.164;17.100;2024-03-23T22:11:14;5.00;;;2.70;;
40322;SDS011;26030;51.164;17.100;2024-03-23T22:16:18;8.40;;;3.50;;
40322;SDS011;26030;51.164;17.100;2024-03-23T22:21:22;8.10;;;3.30;;
40322;SDS011;26030;51.164;17.100;2024-03-23T22:26:26;6.70;;;2.50;;
40322;SDS011;26030;51.164;17.100;2024-03-23T22:31:33;6.00;;;2.90;;
40322;SDS011;26030;51.164;17.100;2024-03-23T22:36:36;7.90;;;2.70;;
40322;SDS011;26030;51.164;17.100;2024-03-23T22:41:45;6.20;;;2.70;;
40322;SDS011;26030;51.164;17.100;2024-03-23T22:46:49;4.60;;;2.70;;
40322;SDS011;26030;51.164;17.100;2024-03-23T22:51:52;3.00;;;2.20;;
40322;SDS011;26030;51.164;17.100;2024-03-23T22:56:56;7.40;;;2.90;;
40322;SDS011;26030;51.164;17.100;2024-03-23T23:02:00;5.90;;;3.30;;
40322;SDS011;26030;51.164;17.100;2024-03-23T23:07:04;7.30;;;2.90;;
40322;SDS011;26030;51.164;17.100;2024-03-23T23:12:08;8.00;;;2.80;;
40322;SDS011;26030;51.164;17.100;2024-03-23T23:17:12;5.00;;;2.50;;
40322;SDS011;26030;51.164;17.100;2024-03-23T23:22:16;4.90;;;2.60;;
40322;SDS011;26030;51.164;17.100;2024-03-23T23:27:19;7.40;;;2.70;;
40322;SDS011;26030;51.164;17.100;2024-03-23T23:32:23;6.30;;;2.70;;
40322;SDS011;26030;51.164;17.100;2024-03-23T23:37:29;7.00;;;2.90;;
40322;SDS011;26030;51.164;17.100;2024-03-23T23:42:33;4.00;;;2.40;;
40322;SDS011;26030;51.164;17.100;2024-03-23T23:47:37;4.40;;;2.60;;
40322;SDS011;26030;51.164;17.100;2024-03-23T23:52:41;4.40;;;2.70;;
40322;SDS011;26030;51.164;17.100;2024-03-23T23:57:46;6.10;;;2.60;;
